Time,TemperatureF,DewpointF,PressureIn,WindDirection,WindDirectionDegrees,WindSpeedMPH,WindSpeedGustMPH,Humidity,HourlyPrecipIn,Conditions,Clouds,dailyrainin,SolarRadiationWatts/m^2,SoftwareType,DateUTC
2013-10-07 00:00:00,39.1,31.9,30.16,South,180,5.0,6.0,75,0.00,,SKC,0.00,0.00,VWS V14.01,2013-10-07 06:00:00,
2013-10-07 00:04:00,37.4,30.9,30.09,SSW,195,2.0,5.0,77,0.00,,SKC,0.00,0.00,VWS V14.01,2013-10-07 06:04:00,
2013-10-07 00:10:00,37.2,30.7,30.09,SSW,195,2.0,5.0,77,0.00,,SKC,0.00,0.00,VWS V14.01,2013-10-07 06:10:00,
2013-10-07 00:15:00,38.9,31.7,30.11,SSW,195,2.0,5.0,75,0.00,,SKC,0.00,0.00,VWS V14.01,2013-10-07 06:15:00,
2013-10-07 00:16:00,37.1,30.9,30.08,SSW,195,3.0,5.0,78,0.00,,SKC,0.00,0.00,VWS V14.01,2013-10-07 06:16:00,
2013-10-07 00:22:00,37.1,30.9,30.08,WSW,240,3.0,5.0,78,0.00,,SKC,0.00,0.00,VWS V14.01,2013-10-07 06:22:00,
2013-10-07 00:28:00,37.1,30.9,30.08,WSW,238,2.0,5.0,78,0.00,,SKC,0.00,0.00,VWS V14.01,2013-10-07 06:28:00,
2013-10-07 00:30:00,38.4,31.2,30.12,SSW,195,3.0,5.0,75,0.00,,SKC,0.00,0.00,VWS V14.01,2013-10-07 06:30:00,
2013-10-07 00:34:00,37.0,30.8,30.08,SSW,209,2.0,5.0,78,0.00,,SKC,0.00,0.00,VWS V14.01,2013-10-07 06:34:00,
2013-10-07 00:40:00,36.9,30.7,30.08,SSW,209,3.0,5.0,78,0.00,,SKC,0.00,0.00,VWS V14.01,2013-10-07 06:40:00,
2013-10-07 00:45:00,37.9,31.0,30.12,SSW,195,2.0,5.0,76,0.00,,SKC,0.00,0.00,VWS V14.01,2013-10-07 06:45:00,
2013-10-07 00:46:00,36.8,30.6,30.08,SSW,209,1.0,5.0,78,0.00,,SKC,0.00,0.00,VWS V14.01,2013-10-07 06:46:00,
2013-10-07 00:52:00,36.6,30.4,30.08,SSW,209,2.0,4.0,78,0.00,,SKC,0.00,0.00,VWS V14.01,2013-10-07 06:52:00,
2013-10-07 00:58:00,36.4,30.2,30.09,SSW,209,3.0,4.0,78,0.00,,SKC,0.00,0.00,VWS V14.01,2013-10-07 06:58:00,
2013-10-07 01:00:00,37.5,31.0,30.11,SSW,195,3.0,5.0,77,0.00,,SKC,0.00,0.00,VWS V14.01,2013-10-07 07:00:00,
2013-10-07 01:04:00,36.2,30.0,30.07,SSW,209,3.0,4.0,78,0.00,,SKC,0.00,0.00,VWS V14.01,2013-10-07 07:04:00,
2013-10-07 01:10:00,35.9,30.0,30.07,SSW,209,2.0,4.0,79,0.00,,SKC,0.00,0.00,VWS V14.01,2013-10-07 07:10:00,
2013-10-07 01:15:00,37.1,30.9,30.08,SSW,195,3.0,5.0,78,0.00,,SKC,0.00,0.00,VWS V14.01,2013-10-07 07:15:00,
2013-10-07 01:16:00,35.8,29.9,30.07,SSW,209,2.0,4.0,79,0.00,,SKC,0.00,0.00,VWS V14.01,2013-10-07 07:16:00,
2013-10-07 01:22:00,35.6,30.0,30.07,SSW,209,0.0,3.0,80,0.00,,SKC,0.00,0.00,VWS V14.01,2013-10-07 07:22:00,
2013-10-07 01:28:00,35.3,29.8,30.08,SSW,209,2.0,3.0,80,0.00,,SKC,0.00,0.00,VWS V14.01,2013-10-07 07:28:00,
2013-10-07 01:30:00,37.0,30.8,30.08,SSW,207,4.0,5.0,78,0.00,,SKC,0.00,0.00,VWS V14.01,2013-10-07 07:30:00,
2013-10-07 01:34:00,35.1,29.6,30.08,SSW,209,1.0,3.0,80,0.00,,SKC,0.00,0.00,VWS V14.01,2013-10-07 07:34:00,
2013-10-07 01:40:00,34.9,29.7,30.08,SSW,209,2.0,3.0,81,0.00,,SKC,0.00,0.00,VWS V14.01,2013-10-07 07:40:00,
2013-10-07 01:45:00,36.8,30.6,30.08,SSW,209,1.0,5.0,78,0.00,,SKC,0.00,0.00,VWS V14.01,2013-10-07 07:45:00,
2013-10-07 01:46:00,34.7,29.5,30.08,SSW,209,0.0,5.0,81,0.00,,SKC,0.00,0.00,VWS V14.01,2013-10-07 07:46:00,
2013-10-07 01:52:00,34.4,29.2,30.08,SSW,209,2.0,3.0,81,0.00,,SKC,0.00,0.00,VWS V14.01,2013-10-07 07:52:00,
2013-10-07 01:58:00,34.4,29.5,30.08,SSW,209,0.0,3.0,82,0.00,,SKC,0.00,0.00,VWS V14.01,2013-10-07 07:58:00,
2013-10-07 02:00:00,36.2,30.0,30.09,SSW,209,0.0,4.0,78,0.00,,SKC,0.00,0.00,VWS V14.01,2013-10-07 08:00:00,
2013-10-07 02:04:00,34.3,29.4,30.07,SSW,209,2.0,3.0,82,0.00,,SKC,0.00,0.00,VWS V14.01,2013-10-07 08:04:00,
2013-10-07 02:10:00,34.1,29.2,30.07,SSW,209,3.0,5.0,82,0.00,,SKC,0.00,0.00,VWS V14.01,2013-10-07 08:10:00,
2013-10-07 02:15:00,35.7,30.1,30.07,SSW,209,0.0,4.0,80,0.00,,SKC,0.00,0.00,VWS V14.01,2013-10-07 08:15:00,
2013-10-07 02:16:00,34.0,29.4,30.07,SSW,209,2.0,5.0,83,0.00,,SKC,0.00,0.00,VWS V14.01,2013-10-07 08:16:00,
2013-10-07 02:22:00,34.0,29.4,30.07,SSW,209,3.0,4.0,83,0.00,,SKC,0.00,0.00,VWS V14.01,2013-10-07 08:22:00,
2013-10-07 02:28:00,34.0,29.4,30.06,SSW,209,0.0,4.0,83,0.00,,SKC,0.00,0.00,VWS V14.01,2013-10-07 08:28:00,
2013-10-07 02:30:00,35.2,29.7,30.08,SSW,209,2.0,3.0,80,0.00,,SKC,0.00,0.00,VWS V14.01,2013-10-07 08:30:00,
2013-10-07 02:34:00,33.9,29.3,30.06,SSW,209,2.0,4.0,83,0.00,,SKC,0.00,0.00,VWS V14.01,2013-10-07 08:34:00,
2013-10-07 02:40:00,33.9,29.6,30.06,SSW,209,0.0,4.0,84,0.00,,SKC,0.00,0.00,VWS V14.01,2013-10-07 08:40:00,
2013-10-07 02:45:00,34.7,29.5,30.08,SSW,209,2.0,5.0,81,0.00,,SKC,0.00,0.00,VWS V14.01,2013-10-07 08:45:00,
2013-10-07 02:46:00,33.8,29.2,30.06,SSW,209,1.0,4.0,83,0.00,,SKC,0.00,0.00,VWS V14.01,2013-10-07 08:46:00,
2013-10-07 02:52:00,33.5,28.9,30.06,SSW,209,1.0,3.0,83,0.00,,SKC,0.00,0.00,VWS V14.01,2013-10-07 08:52:00,
2013-10-07 02:58:00,33.4,29.1,30.07,SSW,209,2.0,3.0,84,0.00,,SKC,0.00,0.00,VWS V14.01,2013-10-07 08:58:00,
2013-10-07 03:00:00,34.4,29.5,30.08,SSW,209,2.0,3.0,82,0.00,,SKC,0.00,0.00,VWS V14.01,2013-10-07 09:00:00,
2013-10-07 03:04:00,33.4,29.1,30.06,SSW,209,2.0,5.0,84,0.00,,SKC,0.00,0.00,VWS V14.01,2013-10-07 09:04:00,
2013-10-07 03:10:00,33.3,29.0,30.06,SSW,209,2.0,5.0,84,0.00,,SKC,0.00,0.00,VWS V14.01,2013-10-07 09:10:00,
2013-10-07 03:15:00,34.0,29.4,30.07,SSW,209,2.0,5.0,83,0.00,,SKC,0.00,0.00,VWS V14.01,2013-10-07 09:15:00,
2013-10-07 03:16:00,33.3,29.0,30.06,SSW,209,2.0,5.0,84,0.00,,SKC,0.00,0.00,VWS V14.01,2013-10-07 09:16:00,
2013-10-07 03:22:00,33.4,29.1,30.06,SSW,209,0.0,4.0,84,0.00,,SKC,0.00,0.00,VWS V14.01,2013-10-07 09:22:00,
2013-10-07 03:28:00,33.4,29.1,30.06,SSW,209,2.0,4.0,84,0.00,,SKC,0.00,0.00,VWS V14.01,2013-10-07 09:28:00,
2013-10-07 03:30:00,34.0,29.7,30.06,SSW,209,2.0,4.0,84,0.00,,SKC,0.00,0.00,VWS V14.01,2013-10-07 09:30:00,
2013-10-07 03:34:00,33.3,29.0,30.06,SSW,209,4.0,4.0,84,0.00,,SKC,0.00,0.00,VWS V14.01,2013-10-07 09:34:00,
2013-10-07 03:40:00,33.1,28.8,30.06,SSW,209,5.0,5.0,84,0.00,,SKC,0.00,0.00,VWS V14.01,2013-10-07 09:40:00,
2013-10-07 03:45:00,33.7,29.1,30.06,SSW,209,2.0,4.0,83,0.00,,SKC,0.00,0.00,VWS V14.01,2013-10-07 09:45:00,
2013-10-07 03:46:00,33.1,28.8,30.05,SSW,209,1.0,5.0,84,0.00,,SKC,0.00,0.00,VWS V14.01,2013-10-07 09:46:00,
2013-10-07 03:52:00,33.0,28.7,30.05,SSW,209,1.0,3.0,84,0.00,,SKC,0.00,0.00,VWS V14.01,2013-10-07 09:52:00,
2013-10-07 03:58:00,32.8,28.5,30.05,SSW,209,3.0,5.0,84,0.00,,SKC,0.00,0.00,VWS V14.01,2013-10-07 09:58:00,
2013-10-07 04:00:00,33.4,29.1,30.07,SSW,209,3.0,4.0,84,0.00,,SKC,0.00,0.00,VWS V14.01,2013-10-07 10:00:00,
2013-10-07 04:04:00,32.7,28.7,30.07,SSW,209,0.0,3.0,85,0.00,,SKC,0.00,0.00,VWS V14.01,2013-10-07 10:04:00,
2013-10-07 04:10:00,32.6,28.6,30.06,SSW,209,3.0,4.0,85,0.00,,SKC,0.00,0.00,VWS V14.01,2013-10-07 10:10:00,
2013-10-07 04:15:00,33.3,29.0,30.06,SSW,209,4.0,5.0,84,0.00,,SKC,0.00,0.00,VWS V14.01,2013-10-07 10:15:00,
2013-10-07 04:16:00,32.6,28.6,30.06,SSW,209,3.0,4.0,85,0.00,,SKC,0.00,0.00,VWS V14.01,2013-10-07 10:16:00,
2013-10-07 04:23:00,32.5,28.5,30.06,SSW,209,4.0,4.0,85,0.00,,SKC,0.00,0.00,VWS V14.01,2013-10-07 10:23:00,
2013-10-07 04:29:00,32.5,28.5,30.06,SSW,209,0.0,4.0,85,0.00,,SKC,0.00,0.00,VWS V14.01,2013-10-07 10:29:00,
2013-10-07 04:30:00,33.3,29.0,30.06,SSW,209,0.0,4.0,84,0.00,,SKC,0.00,0.00,VWS V14.01,2013-10-07 10:30:00,
2013-10-07 04:35:00,32.4,28.4,30.07,SSW,209,0.0,0.0,85,0.00,,SKC,0.00,0.00,VWS V14.01,2013-10-07 10:35:00,
2013-10-07 04:41:00,32.2,28.2,30.07,SSW,209,0.0,2.0,85,0.00,,SKC,0.00,0.00,VWS V14.01,2013-10-07 10:41:00,
2013-10-07 04:45:00,33.1,28.8,30.05,SSW,209,1.0,5.0,84,0.00,,SKC,0.00,0.00,VWS V14.01,2013-10-07 10:45:00,
2013-10-07 04:47:00,32.0,28.0,30.07,SSW,209,0.0,2.0,85,0.00,,SKC,0.00,0.00,VWS V14.01,2013-10-07 10:47:00,
2013-10-07 04:53:00,31.9,27.9,30.07,SSW,209,0.0,3.0,85,0.00,,SKC,0.00,0.00,VWS V14.01,2013-10-07 10:53:00,
2013-10-07 04:59:00,31.6,27.6,30.07,SSW,209,0.0,3.0,85,0.00,,SKC,0.00,0.00,VWS V14.01,2013-10-07 10:59:00,
2013-10-07 05:00:00,32.8,28.8,30.06,SSW,209,3.0,5.0,85,0.00,,SKC,0.00,0.00,VWS V14.01,2013-10-07 11:00:00,
2013-10-07 05:05:00,31.4,27.1,30.13,SSW,209,0.0,0.0,84,0.00,,SKC,0.00,0.00,VWS V14.01,2013-10-07 11:05:00,
2013-10-07 05:11:00,31.1,27.1,30.13,SSW,209,0.0,1.0,85,0.00,,SKC,0.00,0.00,VWS V14.01,2013-10-07 11:11:00,
2013-10-07 05:15:00,32.6,28.6,30.06,SSW,209,3.0,4.0,85,0.00,,SKC,0.00,0.00,VWS V14.01,2013-10-07 11:15:00,
2013-10-07 05:17:00,30.9,26.9,30.13,SSW,209,0.0,1.0,85,0.00,,SKC,0.00,0.00,VWS V14.01,2013-10-07 11:17:00,
2013-10-07 05:23:00,30.6,26.6,30.12,SSW,209,0.0,0.0,85,0.00,,SKC,0.00,0.00,VWS V14.01,2013-10-07 11:23:00,
2013-10-07 05:29:00,30.5,26.8,30.13,SSW,209,1.0,1.0,86,0.00,,SKC,0.00,0.00,VWS V14.01,2013-10-07 11:29:00,
2013-10-07 05:30:00,32.5,28.5,30.06,SSW,209,0.0,4.0,85,0.00,,SKC,0.00,0.00,VWS V14.01,2013-10-07 11:30:00,
2013-10-07 05:35:00,30.3,26.6,30.14,SSW,209,0.0,0.0,86,0.00,,SKC,0.00,0.00,VWS V14.01,2013-10-07 11:35:00,
2013-10-07 05:41:00,30.1,26.4,30.14,SSW,209,0.0,0.0,86,0.00,,SKC,0.00,0.00,VWS V14.01,2013-10-07 11:41:00,
2013-10-07 05:45:00,32.0,28.0,30.07,SSW,209,0.0,2.0,85,0.00,,SKC,0.00,0.00,VWS V14.01,2013-10-07 11:45:00,
2013-10-07 05:47:00,30.0,26.3,30.15,SSW,209,0.0,0.0,86,0.00,,SKC,0.00,0.00,VWS V14.01,2013-10-07 11:47:00,
2013-10-07 05:53:00,29.8,26.1,30.15,SSW,209,0.0,2.0,86,0.00,,SKC,0.00,0.00,VWS V14.01,2013-10-07 11:53:00,
2013-10-07 05:59:00,29.6,26.2,30.15,SSW,209,0.0,2.0,87,0.00,,SKC,0.00,0.00,VWS V14.01,2013-10-07 11:59:00,
2013-10-07 06:00:00,31.5,27.5,30.07,SSW,209,0.0,3.0,85,0.00,,SKC,0.00,0.00,VWS V14.01,2013-10-07 12:00:00,
2013-10-07 06:05:00,29.4,26.0,30.20,SSW,209,0.0,0.0,87,0.00,,SKC,0.00,0.00,VWS V14.01,2013-10-07 12:05:00,
2013-10-07 06:11:00,29.2,25.8,30.20,SSW,209,2.0,2.0,87,0.00,,SKC,0.00,0.00,VWS V14.01,2013-10-07 12:11:00,
2013-10-07 06:15:00,30.9,26.9,30.13,SSW,209,0.0,1.0,85,0.00,,SKC,0.00,0.00,VWS V14.01,2013-10-07 12:15:00,
2013-10-07 06:16:00,29.2,26.1,30.20,SSW,209,2.0,2.0,88,0.00,,SKC,0.00,0.00,VWS V14.01,2013-10-07 12:16:00,
2013-10-07 06:21:00,29.1,26.0,30.20,SSW,209,0.0,2.0,88,0.00,,SKC,0.00,0.00,VWS V14.01,2013-10-07 12:21:00,
2013-10-07 06:27:00,29.0,25.9,30.20,SSW,209,0.0,2.0,88,0.00,,SKC,0.00,0.00,VWS V14.01,2013-10-07 12:27:00,
2013-10-07 06:30:00,30.4,26.7,30.14,SSW,209,0.0,2.0,86,0.00,,SKC,0.00,0.00,VWS V14.01,2013-10-07 12:30:00,
2013-10-07 06:33:00,28.9,25.8,30.20,SSW,209,0.0,2.0,88,0.00,,SKC,0.00,0.00,VWS V14.01,2013-10-07 12:33:00,
2013-10-07 06:40:00,28.9,25.8,30.20,SSW,209,1.0,3.0,88,0.00,,SKC,0.00,0.00,VWS V14.01,2013-10-07 12:40:00,
2013-10-07 06:45:00,30.0,26.3,30.15,SSW,209,0.0,0.0,86,0.00,,SKC,0.00,0.00,VWS V14.01,2013-10-07 12:45:00,
2013-10-07 06:46:00,28.8,26.0,30.20,SSW,209,0.0,3.0,89,0.00,,SKC,0.00,0.00,VWS V14.01,2013-10-07 12:46:00,
2013-10-07 06:52:00,28.8,26.0,30.20,SSW,209,1.0,3.0,89,0.00,,SKC,0.00,0.00,VWS V14.01,2013-10-07 12:52:00,
2013-10-07 06:58:00,29.0,26.4,30.20,SSW,209,0.0,6.0,90,0.00,,SKC,0.00,0.00,VWS V14.01,2013-10-07 12:58:00,
2013-10-07 07:00:00,29.4,26.0,30.15,SSW,209,0.0,2.0,87,0.00,,SKC,0.00,0.00,VWS V14.01,2013-10-07 13:00:00,
2013-10-07 07:04:00,29.2,26.6,30.21,SSW,209,5.0,5.0,90,0.00,,SKC,0.00,0.00,VWS V14.01,2013-10-07 13:04:00,
2013-10-07 07:10:00,29.6,27.0,30.22,SSW,209,2.0,5.0,90,0.00,,SKC,0.00,0.00,VWS V14.01,2013-10-07 13:10:00,
2013-10-07 07:15:00,29.2,26.1,30.20,SSW,209,2.0,2.0,88,0.00,,SKC,0.00,0.00,VWS V14.01,2013-10-07 13:15:00,
2013-10-07 07:16:00,29.7,27.1,30.21,SSW,209,0.0,5.0,90,0.00,,SKC,0.00,0.00,VWS V14.01,2013-10-07 13:16:00,
2013-10-07 07:22:00,29.8,27.2,30.22,SSW,209,0.0,3.0,90,0.00,,SKC,0.00,5.00,VWS V14.01,2013-10-07 13:22:00,
2013-10-07 07:28:00,29.7,26.9,30.22,SSW,209,0.0,3.0,89,0.00,,SKC,0.00,7.00,VWS V14.01,2013-10-07 13:28:00,
2013-10-07 07:30:00,29.0,25.9,30.20,SSW,209,1.0,3.0,88,0.00,,SKC,0.00,0.00,VWS V14.01,2013-10-07 13:30:00,
2013-10-07 07:34:00,29.6,26.8,30.22,SSW,209,0.0,2.0,89,0.00,,SKC,0.00,7.00,VWS V14.01,2013-10-07 13:34:00,
2013-10-07 07:40:00,29.5,26.7,30.22,SSW,209,0.0,2.0,89,0.00,,SKC,0.00,9.00,VWS V14.01,2013-10-07 13:40:00,
2013-10-07 07:45:00,28.8,26.0,30.20,SSW,209,0.0,3.0,89,0.00,,SKC,0.00,0.00,VWS V14.01,2013-10-07 13:45:00,
2013-10-07 07:46:00,29.4,26.6,30.22,SSW,209,0.0,2.0,89,0.00,,SKC,0.00,9.00,VWS V14.01,2013-10-07 13:46:00,
2013-10-07 07:52:00,29.3,26.5,30.22,SSW,209,0.0,0.0,89,0.00,,SKC,0.00,11.00,VWS V14.01,2013-10-07 13:52:00,
2013-10-07 07:58:00,29.2,26.4,30.23,SSW,209,1.0,2.0,89,0.00,,SKC,0.00,11.00,VWS V14.01,2013-10-07 13:58:00,
2013-10-07 08:00:00,29.2,26.6,30.20,SSW,209,0.0,6.0,90,0.00,,SKC,0.00,0.00,VWS V14.01,2013-10-07 14:00:00,
2013-10-07 08:04:00,29.1,26.3,30.24,SSW,209,0.0,0.0,89,0.00,,SKC,0.00,11.00,VWS V14.01,2013-10-07 14:04:00,
2013-10-07 08:10:00,29.0,26.2,30.24,SSW,209,0.0,0.0,89,0.00,,SKC,0.00,12.00,VWS V14.01,2013-10-07 14:10:00,
2013-10-07 08:15:00,29.7,27.1,30.22,SSW,209,3.0,5.0,90,0.00,,SKC,0.00,0.00,VWS V14.01,2013-10-07 14:15:00,
2013-10-07 08:16:00,28.9,26.1,30.24,SSW,209,0.0,0.0,89,0.00,,SKC,0.00,12.00,VWS V14.01,2013-10-07 14:16:00,
2013-10-07 08:22:00,28.9,26.1,30.24,SSW,209,0.0,0.0,89,0.00,,SKC,0.00,12.00,VWS V14.01,2013-10-07 14:22:00,
2013-10-07 08:28:00,28.8,26.0,30.24,SSW,209,0.0,2.0,89,0.00,,SKC,0.00,12.00,VWS V14.01,2013-10-07 14:28:00,
2013-10-07 08:30:00,29.7,26.9,30.22,SSW,209,2.0,3.0,89,0.00,,SKC,0.00,7.00,VWS V14.01,2013-10-07 14:30:00,
2013-10-07 08:34:00,28.8,26.2,30.24,SSW,209,0.0,0.0,90,0.00,,SKC,0.00,14.00,VWS V14.01,2013-10-07 14:34:00,
2013-10-07 08:40:00,28.8,26.2,30.24,SSW,209,0.0,0.0,90,0.00,,SKC,0.00,14.00,VWS V14.01,2013-10-07 14:40:00,
2013-10-07 08:45:00,29.4,26.6,30.22,SSW,209,0.0,2.0,89,0.00,,SKC,0.00,9.00,VWS V14.01,2013-10-07 14:45:00,
2013-10-07 08:46:00,28.8,26.2,30.24,SSW,209,0.0,0.0,90,0.00,,SKC,0.00,14.00,VWS V14.01,2013-10-07 14:46:00,
2013-10-07 08:52:00,28.8,26.2,30.24,SSW,209,0.0,0.0,90,0.00,,SKC,0.00,16.00,VWS V14.01,2013-10-07 14:52:00,
2013-10-07 08:58:00,28.8,26.2,30.24,SSW,209,0.0,0.0,90,0.00,,SKC,0.00,18.00,VWS V14.01,2013-10-07 14:58:00,
2013-10-07 09:00:00,29.1,26.3,30.22,SSW,209,0.0,2.0,89,0.00,,SKC,0.00,11.00,VWS V14.01,2013-10-07 15:00:00,
2013-10-07 09:04:00,28.8,26.2,30.23,SSW,209,0.0,0.0,90,0.00,,SKC,0.00,19.00,VWS V14.01,2013-10-07 15:04:00,
2013-10-07 09:10:00,28.8,26.2,30.23,SSW,209,0.0,0.0,90,0.00,,SKC,0.00,21.00,VWS V14.01,2013-10-07 15:10:00,
2013-10-07 09:15:00,28.9,26.1,30.24,SSW,209,0.0,0.0,89,0.00,,SKC,0.00,12.00,VWS V14.01,2013-10-07 15:15:00,
2013-10-07 09:16:00,28.8,26.2,30.23,SSW,209,0.0,0.0,90,0.00,,SKC,0.00,25.00,VWS V14.01,2013-10-07 15:16:00,
2013-10-07 09:22:00,28.8,26.2,30.23,SSW,209,0.0,0.0,90,0.00,,SKC,0.00,149.00,VWS V14.01,2013-10-07 15:22:00,
2013-10-07 09:28:00,29.9,27.9,30.21,SSW,209,0.0,0.0,92,0.00,,SKC,0.00,425.00,VWS V14.01,2013-10-07 15:28:00,
2013-10-07 09:30:00,28.8,26.0,30.24,SSW,209,0.0,2.0,89,0.00,,SKC,0.00,14.00,VWS V14.01,2013-10-07 15:30:00,
2013-10-07 09:40:00,34.9,32.3,30.17,SSW,209,0.0,0.0,90,0.00,,SKC,0.00,459.00,VWS V14.01,2013-10-07 15:40:00,
2013-10-07 09:45:00,28.8,26.2,30.24,SSW,209,0.0,0.0,90,0.00,,SKC,0.00,16.00,VWS V14.01,2013-10-07 15:45:00,
2013-10-07 09:46:00,38.0,33.3,30.13,SSW,209,0.0,0.0,83,0.00,,SKC,0.00,475.00,VWS V14.01,2013-10-07 15:46:00,
2013-10-07 09:52:00,40.3,33.0,30.12,SSW,209,0.0,1.0,75,0.00,,SKC,0.00,492.00,VWS V14.01,2013-10-07 15:52:00,
2013-10-07 09:58:00,41.9,32.1,30.10,SSW,209,0.0,3.0,68,0.00,,SKC,0.00,508.00,VWS V14.01,2013-10-07 15:58:00,
2013-10-07 10:00:00,28.9,26.3,30.24,SSW,209,0.0,0.0,90,0.00,,SKC,0.00,18.00,VWS V14.01,2013-10-07 16:00:00,
2013-10-07 10:04:00,43.3,30.8,30.12,SSW,207,2.0,2.0,61,0.00,,SKC,0.00,524.00,VWS V14.01,2013-10-07 16:04:00,
2013-10-07 10:10:00,44.4,31.0,30.11,SSW,206,2.0,2.0,59,0.00,,SKC,0.00,534.00,VWS V14.01,2013-10-07 16:10:00,
2013-10-07 10:15:00,28.8,26.2,30.23,SSW,209,0.0,0.0,90,0.00,,SKC,0.00,28.00,VWS V14.01,2013-10-07 16:15:00,
2013-10-07 10:16:00,45.7,31.4,30.10,NE,44,2.0,2.0,57,0.00,,SKC,0.00,552.00,VWS V14.01,2013-10-07 16:16:00,
2013-10-07 10:22:00,46.9,30.7,30.08,NE,42,2.0,3.0,53,0.00,,SKC,0.00,568.00,VWS V14.01,2013-10-07 16:22:00,
2013-10-07 10:28:00,47.7,31.0,30.08,East,87,0.0,4.0,52,0.00,,SKC,0.00,585.00,VWS V14.01,2013-10-07 16:28:00,
2013-10-07 10:34:00,48.2,31.4,30.07,ENE,74,2.0,3.0,52,0.00,,SKC,0.00,599.00,VWS V14.01,2013-10-07 16:34:00,
2013-10-07 10:40:00,48.9,31.1,30.05,ENE,74,1.0,3.0,50,0.00,,SKC,0.00,613.00,VWS V14.01,2013-10-07 16:40:00,
2013-10-07 10:45:00,38.4,33.7,30.13,SSW,209,0.0,0.0,83,0.00,,SKC,0.00,478.00,VWS V14.01,2013-10-07 16:45:00,
2013-10-07 10:46:00,49.7,32.3,30.05,East,79,2.0,4.0,51,0.00,,SKC,0.00,624.00,VWS V14.01,2013-10-07 16:46:00,
2013-10-07 10:52:00,50.9,32.4,30.03,ENE,70,0.0,4.0,49,0.00,,SKC,0.00,513.00,VWS V14.01,2013-10-07 16:52:00,
2013-10-07 10:58:00,51.7,32.1,30.03,ENE,76,4.0,5.0,47,0.00,,SKC,0.00,650.00,VWS V14.01,2013-10-07 16:58:00,
2013-10-07 11:00:00,42.7,31.4,30.11,SSW,209,0.0,3.0,64,0.00,,SKC,0.00,517.00,VWS V14.01,2013-10-07 17:00:00,
2013-10-07 11:05:00,52.4,32.8,30.02,ENE,74,1.0,4.0,47,0.00,,SKC,0.00,661.00,VWS V14.01,2013-10-07 17:05:00,
2013-10-07 11:11:00,53.2,33.5,30.01,ENE,72,2.0,5.0,47,0.00,,SKC,0.00,671.00,VWS V14.01,2013-10-07 17:11:00,
2013-10-07 11:15:00,45.8,31.5,30.10,NE,44,1.0,2.0,57,0.00,,SKC,0.00,552.00,VWS V14.01,2013-10-07 17:15:00,
2013-10-07 11:17:00,53.6,32.2,30.00,ENE,72,3.0,5.0,44,0.00,,SKC,0.00,684.00,VWS V14.01,2013-10-07 17:17:00,
2013-10-07 11:23:00,54.6,33.7,29.99,NNE,15,3.0,3.0,45,0.00,,SKC,0.00,694.00,VWS V14.01,2013-10-07 17:23:00,
2013-10-07 11:29:00,55.2,34.2,29.99,ENE,71,3.0,5.0,45,0.00,,SKC,0.00,703.00,VWS V14.01,2013-10-07 17:29:00,
2013-10-07 11:30:00,48.0,32.2,30.07,ENE,69,1.0,5.0,54,0.00,,SKC,0.00,591.00,VWS V14.01,2013-10-07 17:30:00,
2013-10-07 11:35:00,56.5,34.3,29.97,NE,46,0.0,4.0,43,0.00,,SKC,0.00,714.00,VWS V14.01,2013-10-07 17:35:00,
2013-10-07 11:41:00,57.0,33.5,29.96,NE,49,2.0,7.0,41,0.00,,SKC,0.00,719.00,VWS V14.01,2013-10-07 17:41:00,
2013-10-07 11:45:00,49.8,32.4,30.05,East,79,1.0,4.0,51,0.00,,SKC,0.00,624.00,VWS V14.01,2013-10-07 17:45:00,
2013-10-07 11:47:00,56.9,34.7,29.96,North,11,0.0,7.0,43,0.00,,SKC,0.00,726.00,VWS V14.01,2013-10-07 17:47:00,
2013-10-07 11:53:00,58.0,35.1,29.94,NNE,17,2.0,5.0,42,0.00,,SKC,0.00,673.00,VWS V14.01,2013-10-07 17:53:00,
2013-10-07 11:59:00,58.6,34.4,29.94,ENE,57,5.0,6.0,40,0.00,,SKC,0.00,742.00,VWS V14.01,2013-10-07 17:59:00,
2013-10-07 12:00:00,52.0,32.9,30.02,ENE,57,1.0,5.0,48,0.00,,SKC,0.00,657.00,VWS V14.01,2013-10-07 18:00:00,
2013-10-07 12:05:00,59.3,34.4,29.95,NE,55,4.0,5.0,39,0.00,,SKC,0.00,747.00,VWS V14.01,2013-10-07 18:05:00,
2013-10-07 12:11:00,59.7,33.4,29.93,NE,43,2.0,7.0,37,0.00,,SKC,0.00,754.00,VWS V14.01,2013-10-07 18:11:00,
2013-10-07 12:15:00,53.6,32.2,30.00,ENE,72,3.0,5.0,44,0.00,,SKC,0.00,684.00,VWS V14.01,2013-10-07 18:15:00,
2013-10-07 12:17:00,60.6,33.5,29.92,NE,48,0.0,7.0,36,0.00,,SKC,0.00,756.00,VWS V14.01,2013-10-07 18:17:00,
2013-10-07 12:22:00,60.8,34.4,29.92,NE,42,4.0,8.0,37,0.00,,SKC,0.00,763.00,VWS V14.01,2013-10-07 18:22:00,
2013-10-07 12:28:00,61.1,33.3,29.91,NE,44,4.0,8.0,35,0.00,,SKC,0.00,768.00,VWS V14.01,2013-10-07 18:28:00,
2013-10-07 12:30:00,55.9,34.9,29.97,ENE,70,0.0,5.0,45,0.00,,SKC,0.00,707.00,VWS V14.01,2013-10-07 18:30:00,
2013-10-07 12:34:00,61.1,33.3,29.91,NNE,15,0.0,6.0,35,0.00,,SKC,0.00,754.00,VWS V14.01,2013-10-07 18:34:00,
2013-10-07 12:40:00,61.9,33.2,29.89,NNE,19,4.0,7.0,34,0.00,,SKC,0.00,773.00,VWS V14.01,2013-10-07 18:40:00,
2013-10-07 12:45:00,56.9,34.7,29.96,North,11,0.0,7.0,43,0.00,,SKC,0.00,726.00,VWS V14.01,2013-10-07 18:45:00,
2013-10-07 12:46:00,62.6,33.9,29.89,NNE,24,6.0,7.0,34,0.00,,SKC,0.00,766.00,VWS V14.01,2013-10-07 18:46:00,
2013-10-07 12:52:00,63.0,33.5,29.88,NE,38,3.0,6.0,33,0.00,,SKC,0.00,751.00,VWS V14.01,2013-10-07 18:52:00,
2013-10-07 12:58:00,64.1,35.2,29.86,NNE,17,3.0,6.0,34,0.00,,SKC,0.00,763.00,VWS V14.01,2013-10-07 18:58:00,
2013-10-07 13:00:00,59.0,35.3,29.94,NE,46,0.0,6.0,41,0.00,,SKC,0.00,745.00,VWS V14.01,2013-10-07 19:00:00,
2013-10-07 13:04:00,64.0,34.3,29.87,NNE,14,3.0,6.0,33,0.00,,SKC,0.00,775.00,VWS V14.01,2013-10-07 19:04:00,
2013-10-07 13:10:00,64.8,35.8,29.86,North,360,3.0,6.0,34,0.00,,SKC,0.00,773.00,VWS V14.01,2013-10-07 19:10:00,
2013-10-07 13:15:00,60.6,33.5,29.92,NE,48,0.0,7.0,36,0.00,,SKC,0.00,756.00,VWS V14.01,2013-10-07 19:15:00,
2013-10-07 13:16:00,65.0,35.2,29.86,NNE,15,5.0,7.0,33,0.00,,SKC,0.00,770.00,VWS V14.01,2013-10-07 19:16:00,
2013-10-07 13:22:00,65.1,34.5,29.86,North,360,4.0,10.0,32,0.00,,SKC,0.00,765.00,VWS V14.01,2013-10-07 19:22:00,
2013-10-07 13:28:00,65.6,36.5,29.84,NE,47,9.0,10.0,34,0.00,,SKC,0.00,763.00,VWS V14.01,2013-10-07 19:28:00,
2013-10-07 13:34:00,65.6,35.8,29.83,North,349,2.0,6.0,33,0.00,,SKC,0.00,759.00,VWS V14.01,2013-10-07 19:34:00,
2013-10-07 13:40:00,65.8,35.2,29.83,North,350,4.0,9.0,32,0.00,,SKC,0.00,756.00,VWS V14.01,2013-10-07 19:40:00,
2013-10-07 13:46:00,66.5,35.0,29.83,NNE,26,4.0,9.0,31,0.00,,SKC,0.00,761.00,VWS V14.01,2013-10-07 19:46:00,
2013-10-07 13:52:00,67.1,35.5,29.83,NNE,17,1.0,8.0,31,0.00,,SKC,0.00,749.00,VWS V14.01,2013-10-07 19:52:00,
2013-10-07 13:58:00,67.4,35.7,29.82,North,360,6.0,10.0,31,0.00,,SKC,0.00,745.00,VWS V14.01,2013-10-07 19:58:00,
2013-10-07 14:04:00,67.6,35.1,29.81,North,10,4.0,6.0,30,0.00,,SKC,0.00,740.00,VWS V14.01,2013-10-07 20:04:00,
2013-10-07 14:10:00,67.9,35.3,29.81,North,355,2.0,8.0,30,0.00,,SKC,0.00,735.00,VWS V14.01,2013-10-07 20:10:00,
2013-10-07 14:16:00,68.0,32.8,29.81,NNE,15,3.0,8.0,27,0.00,,SKC,0.00,731.00,VWS V14.01,2013-10-07 20:16:00,
2013-10-07 14:22:00,67.8,31.7,29.81,NNE,13,5.0,8.0,26,0.00,,SKC,0.00,705.00,VWS V14.01,2013-10-07 20:22:00,
2013-10-07 14:28:00,67.7,31.6,29.81,NNE,21,9.0,11.0,26,0.00,,SKC,0.00,687.00,VWS V14.01,2013-10-07 20:28:00,
2013-10-07 14:34:00,67.9,30.8,29.81,NNE,20,3.0,9.0,25,0.00,,SKC,0.00,715.00,VWS V14.01,2013-10-07 20:34:00,
2013-10-07 14:40:00,68.4,32.2,29.80,NNE,17,4.0,10.0,26,0.00,,SKC,0.00,694.00,VWS V14.01,2013-10-07 20:40:00,
2013-10-07 14:45:00,66.5,35.0,29.83,NNE,30,3.0,9.0,31,0.00,,SKC,0.00,765.00,VWS V14.01,2013-10-07 20:45:00,
2013-10-07 14:46:00,68.8,32.5,29.78,NNW,346,1.0,10.0,26,0.00,,SKC,0.00,680.00,VWS V14.01,2013-10-07 20:46:00,
2013-10-07 14:52:00,69.2,31.9,29.78,NNE,27,4.0,7.0,25,0.00,,SKC,0.00,657.00,VWS V14.01,2013-10-07 20:52:00,
2013-10-07 14:58:00,69.3,32.0,29.77,North,349,4.0,7.0,25,0.00,,SKC,0.00,664.00,VWS V14.01,2013-10-07 20:58:00,
2013-10-07 15:00:00,67.4,35.7,29.82,NNW,346,4.0,10.0,31,0.00,,SKC,0.00,744.00,VWS V14.01,2013-10-07 21:00:00,
2013-10-07 15:04:00,69.3,32.0,29.76,NE,52,2.0,6.0,25,0.00,,SKC,0.00,622.00,VWS V14.01,2013-10-07 21:04:00,
2013-10-07 15:10:00,69.6,33.2,29.76,NNE,25,0.0,7.0,26,0.00,,SKC,0.00,615.00,VWS V14.01,2013-10-07 21:10:00,
2013-10-07 15:16:00,69.8,33.4,29.77,NNE,17,5.0,8.0,26,0.00,,SKC,0.00,599.00,VWS V14.01,2013-10-07 21:16:00,
2013-10-07 15:22:00,69.6,33.2,29.76,NE,36,2.0,8.0,26,0.00,,SKC,0.00,504.00,VWS V14.01,2013-10-07 21:22:00,
2013-10-07 15:28:00,69.3,33.0,29.76,NNE,19,2.0,8.0,26,0.00,,SKC,0.00,526.00,VWS V14.01,2013-10-07 21:28:00,
2013-10-07 15:30:00,67.7,30.6,29.81,North,360,6.0,11.0,25,0.00,,SKC,0.00,719.00,VWS V14.01,2013-10-07 21:30:00,
2013-10-07 15:34:00,69.3,33.9,29.76,NNE,32,1.0,7.0,27,0.00,,SKC,0.00,385.00,VWS V14.01,2013-10-07 21:34:00,
2013-10-07 15:39:00,69.0,32.7,29.75,North,355,4.0,7.0,26,0.00,,SKC,0.00,436.00,VWS V14.01,2013-10-07 21:39:00,
2013-10-07 15:45:00,68.8,33.5,29.75,NE,42,0.0,7.0,27,0.00,,SKC,0.00,381.00,VWS V14.01,2013-10-07 21:45:00,
2013-10-07 15:51:00,68.7,33.4,29.75,NNE,26,6.0,6.0,27,0.00,,SKC,0.00,330.00,VWS V14.01,2013-10-07 21:51:00,
2013-10-07 15:58:00,68.4,34.0,29.74,NE,36,1.0,7.0,28,0.00,,SKC,0.00,399.00,VWS V14.01,2013-10-07 21:58:00,
2013-10-07 16:00:00,69.3,33.0,29.77,North,350,0.0,8.0,26,0.00,,SKC,0.00,642.00,VWS V14.01,2013-10-07 22:00:00,
2013-10-07 16:04:00,68.5,35.0,29.76,NNE,25,2.0,4.0,29,0.00,,SKC,0.00,367.00,VWS V14.01,2013-10-07 22:04:00,
2013-10-07 16:10:00,68.5,34.1,29.76,North,355,0.0,6.0,28,0.00,,SKC,0.00,334.00,VWS V14.01,2013-10-07 22:10:00,
2013-10-07 16:15:00,69.8,33.4,29.77,NE,53,4.0,8.0,26,0.00,,SKC,0.00,599.00,VWS V14.01,2013-10-07 22:15:00,
2013-10-07 16:16:00,68.6,36.0,29.76,NNE,18,0.0,6.0,30,0.00,,SKC,0.00,352.00,VWS V14.01,2013-10-07 22:16:00,
2013-10-07 16:22:00,68.8,35.3,29.76,NNE,18,2.0,6.0,29,0.00,,SKC,0.00,445.00,VWS V14.01,2013-10-07 22:22:00,
2013-10-07 16:28:00,69.1,35.5,29.75,NNE,14,3.0,6.0,29,0.00,,SKC,0.00,376.00,VWS V14.01,2013-10-07 22:28:00,
2013-10-07 16:30:00,69.3,33.9,29.76,NNE,15,4.0,8.0,27,0.00,,SKC,0.00,492.00,VWS V14.01,2013-10-07 22:30:00,
2013-10-07 16:34:00,69.3,34.8,29.75,North,10,1.0,5.0,28,0.00,,SKC,0.00,352.00,VWS V14.01,2013-10-07 22:34:00,
2013-10-07 16:40:00,69.2,35.6,29.75,NE,38,3.0,5.0,29,0.00,,SKC,0.00,322.00,VWS V14.01,2013-10-07 22:40:00,
2013-10-07 16:45:00,68.8,33.5,29.75,NE,42,1.0,7.0,27,0.00,,SKC,0.00,388.00,VWS V14.01,2013-10-07 22:45:00,
2013-10-07 16:46:00,68.8,35.3,29.75,North,355,0.0,5.0,29,0.00,,SKC,0.00,283.00,VWS V14.01,2013-10-07 22:46:00,
2013-10-07 16:52:00,68.5,35.0,29.75,North,355,0.0,3.0,29,0.00,,SKC,0.00,179.00,VWS V14.01,2013-10-07 22:52:00,
2013-10-07 16:58:00,67.9,35.3,29.76,North,355,0.0,3.0,30,0.00,,SKC,0.00,76.00,VWS V14.01,2013-10-07 22:58:00,
2013-10-07 17:00:00,68.4,34.9,29.76,NNE,24,4.0,7.0,29,0.00,,SKC,0.00,350.00,VWS V14.01,2013-10-07 23:00:00,
2013-10-07 17:04:00,67.3,33.1,29.78,North,355,0.0,0.0,28,0.00,,SKC,0.00,77.00,VWS V14.01,2013-10-07 23:04:00,
2013-10-07 17:10:00,66.4,33.2,29.77,North,355,0.0,1.0,29,0.00,,SKC,0.00,88.00,VWS V14.01,2013-10-07 23:10:00,
2013-10-07 17:15:00,68.6,35.1,29.75,NNE,33,3.0,6.0,29,0.00,,SKC,0.00,352.00,VWS V14.01,2013-10-07 23:15:00,
2013-10-07 17:16:00,65.8,28.0,29.79,West,281,0.0,3.0,24,0.00,,SKC,0.00,98.00,VWS V14.01,2013-10-07 23:16:00,
2013-10-07 17:22:00,65.6,26.8,29.79,SW,225,1.0,4.0,23,0.00,,SKC,0.00,105.00,VWS V14.01,2013-10-07 23:22:00,
2013-10-07 17:28:00,65.8,25.9,29.79,SW,222,3.0,6.0,22,0.00,,SKC,0.00,97.00,VWS V14.01,2013-10-07 23:28:00,
2013-10-07 17:30:00,69.2,34.7,29.75,NNE,19,0.0,6.0,28,0.00,,SKC,0.00,369.00,VWS V14.01,2013-10-07 23:30:00,
2013-10-07 17:34:00,66.0,26.1,29.79,SW,215,3.0,6.0,22,0.00,,SKC,0.00,83.00,VWS V14.01,2013-10-07 23:34:00,
2013-10-07 17:40:00,66.1,27.2,29.79,SW,215,3.0,6.0,23,0.00,,SKC,0.00,65.00,VWS V14.01,2013-10-07 23:40:00,
2013-10-07 17:45:00,68.8,35.3,29.75,North,360,2.0,5.0,29,0.00,,SKC,0.00,251.00,VWS V14.01,2013-10-07 23:45:00,
2013-10-07 17:46:00,66.0,30.2,29.78,SW,215,0.0,6.0,26,0.00,,SKC,0.00,56.00,VWS V14.01,2013-10-07 23:46:00,
2013-10-07 17:52:00,65.7,30.8,29.79,SW,219,0.0,2.0,27,0.00,,SKC,0.00,49.00,VWS V14.01,2013-10-07 23:52:00,
2013-10-07 17:58:00,65.1,30.3,29.79,SW,219,0.0,2.0,27,0.00,,SKC,0.00,42.00,VWS V14.01,2013-10-07 23:58:00,
2013-10-07 18:00:00,67.5,32.4,29.75,North,355,0.0,3.0,27,0.00,,SKC,0.00,74.00,VWS V14.01,2013-10-08 00:00:00,
2013-10-07 18:04:00,64.6,32.5,29.79,SW,219,0.0,2.0,30,0.00,,SKC,0.00,40.00,VWS V14.01,2013-10-08 00:04:00,
2013-10-07 18:10:00,63.8,32.6,29.80,SW,222,0.0,2.0,31,0.00,,SKC,0.00,35.00,VWS V14.01,2013-10-08 00:10:00,
2013-10-07 18:15:00,65.8,27.0,29.80,West,281,2.0,3.0,23,0.00,,SKC,0.00,100.00,VWS V14.01,2013-10-08 00:15:00,
2013-10-07 18:16:00,63.1,32.8,29.80,SW,222,0.0,2.0,32,0.00,,SKC,0.00,25.00,VWS V14.01,2013-10-08 00:16:00,
2013-10-07 18:22:00,61.8,32.4,29.81,SW,230,2.0,3.0,33,0.00,,SKC,0.00,14.00,VWS V14.01,2013-10-08 00:22:00,
2013-10-07 18:28:00,60.7,32.9,29.81,SW,230,0.0,3.0,35,0.00,,SKC,0.00,7.00,VWS V14.01,2013-10-08 00:28:00,
2013-10-07 18:30:00,65.9,28.1,29.79,SW,221,3.0,6.0,24,0.00,,SKC,0.00,88.00,VWS V14.01,2013-10-08 00:30:00,
2013-10-07 18:34:00,59.9,32.9,29.83,SW,230,0.0,0.0,36,0.00,,SKC,0.00,0.00,VWS V14.01,2013-10-08 00:34:00,
2013-10-07 18:40:00,59.0,32.8,29.83,SW,230,0.0,2.0,37,0.00,,SKC,0.00,0.00,VWS V14.01,2013-10-08 00:40:00,
2013-10-07 18:45:00,66.0,31.1,29.78,SW,215,0.0,6.0,27,0.00,,SKC,0.00,54.00,VWS V14.01,2013-10-08 00:45:00,
2013-10-07 18:46:00,58.4,34.2,29.84,SW,230,0.0,2.0,40,0.00,,SKC,0.00,0.00,VWS V14.01,2013-10-08 00:46:00,
2013-10-07 18:52:00,57.4,33.9,29.84,SW,230,0.0,0.0,41,0.00,,SKC,0.00,0.00,VWS V14.01,2013-10-08 00:52:00,
2013-10-07 18:58:00,56.5,32.5,29.84,SW,230,1.0,2.0,40,0.00,,SKC,0.00,0.00,VWS V14.01,2013-10-08 00:58:00,
2013-10-07 19:00:00,64.8,31.0,29.79,SW,219,1.0,2.0,28,0.00,,SKC,0.00,42.00,VWS V14.01,2013-10-08 01:00:00,
2013-10-07 19:04:00,55.5,34.0,29.86,SW,225,0.0,2.0,44,0.00,,SKC,0.00,0.00,VWS V14.01,2013-10-08 01:04:00,
2013-10-07 19:10:00,54.4,33.5,29.86,SW,226,0.0,3.0,45,0.00,,SKC,0.00,0.00,VWS V14.01,2013-10-08 01:10:00,
2013-10-07 19:15:00,62.9,31.8,29.80,SW,222,0.0,2.0,31,0.00,,SKC,0.00,23.00,VWS V14.01,2013-10-08 01:15:00,
2013-10-07 19:16:00,53.4,32.6,29.87,SW,226,0.0,4.0,45,0.00,,SKC,0.00,0.00,VWS V14.01,2013-10-08 01:16:00,
2013-10-07 19:22:00,52.6,34.0,29.88,SW,226,0.0,2.0,49,0.00,,SKC,0.00,0.00,VWS V14.01,2013-10-08 01:22:00,
2013-10-07 19:28:00,51.8,33.3,29.89,SW,226,0.0,2.0,49,0.00,,SKC,0.00,0.00,VWS V14.01,2013-10-08 01:28:00,
2013-10-07 19:30:00,60.2,33.2,29.83,SW,230,0.0,3.0,36,0.00,,SKC,0.00,5.00,VWS V14.01,2013-10-08 01:30:00,
2013-10-07 19:34:00,51.2,33.2,29.89,SW,226,0.0,1.0,50,0.00,,SKC,0.00,0.00,VWS V14.01,2013-10-08 01:34:00,
2013-10-07 19:40:00,50.5,33.1,29.90,SW,226,0.0,2.0,51,0.00,,SKC,0.00,0.00,VWS V14.01,2013-10-08 01:40:00,
2013-10-07 19:45:00,58.3,34.1,29.84,SW,230,0.0,2.0,40,0.00,,SKC,0.00,0.00,VWS V14.01,2013-10-08 01:45:00,
2013-10-07 19:46:00,50.0,33.1,29.91,SW,226,0.0,2.0,52,0.00,,SKC,0.00,0.00,VWS V14.01,2013-10-08 01:46:00,
2013-10-07 19:52:00,49.4,32.5,29.91,SW,226,2.0,2.0,52,0.00,,SKC,0.00,0.00,VWS V14.01,2013-10-08 01:52:00,
2013-10-07 19:58:00,48.9,32.5,29.91,SW,221,0.0,2.0,53,0.00,,SKC,0.00,0.00,VWS V14.01,2013-10-08 01:58:00,
2013-10-07 20:00:00,55.8,31.9,29.86,SW,230,0.0,2.0,40,0.00,,SKC,0.00,0.00,VWS V14.01,2013-10-08 02:00:00,
2013-10-07 20:04:00,48.5,30.7,29.91,SW,221,0.0,0.0,50,0.00,,SKC,0.00,0.00,VWS V14.01,2013-10-08 02:04:00,
2013-10-07 20:10:00,48.2,31.9,29.93,SW,223,0.0,3.0,53,0.00,,SKC,0.00,0.00,VWS V14.01,2013-10-08 02:10:00,
2013-10-07 20:15:00,53.3,32.5,29.88,SW,227,0.0,4.0,45,0.00,,SKC,0.00,0.00,VWS V14.01,2013-10-08 02:15:00,
2013-10-07 20:16:00,48.1,31.3,29.93,SW,224,0.0,3.0,52,0.00,,SKC,0.00,0.00,VWS V14.01,2013-10-08 02:16:00,
2013-10-07 20:22:00,47.9,30.7,29.93,SW,224,0.0,2.0,51,0.00,,SKC,0.00,0.00,VWS V14.01,2013-10-08 02:22:00,
2013-10-07 20:28:00,47.8,32.0,29.93,SW,224,0.0,2.0,54,0.00,,SKC,0.00,0.00,VWS V14.01,2013-10-08 02:28:00,
2013-10-07 20:30:00,51.4,33.4,29.89,SW,226,0.0,2.0,50,0.00,,SKC,0.00,0.00,VWS V14.01,2013-10-08 02:30:00,
2013-10-07 20:34:00,47.4,31.1,29.93,SW,224,0.0,0.0,53,0.00,,SKC,0.00,0.00,VWS V14.01,2013-10-08 02:34:00,
2013-10-07 20:40:00,47.1,31.3,29.94,SW,224,0.0,1.0,54,0.00,,SKC,0.00,0.00,VWS V14.01,2013-10-08 02:40:00,
2013-10-07 20:45:00,49.9,32.5,29.91,SW,226,0.0,2.0,51,0.00,,SKC,0.00,0.00,VWS V14.01,2013-10-08 02:45:00,
2013-10-07 20:46:00,46.9,32.0,29.93,SW,224,0.0,1.0,56,0.00,,SKC,0.00,0.00,VWS V14.01,2013-10-08 02:46:00,
2013-10-07 20:52:00,46.6,32.2,29.94,SW,224,1.0,2.0,57,0.00,,SKC,0.00,0.00,VWS V14.01,2013-10-08 02:52:00,
2013-10-07 20:58:00,46.2,31.8,29.95,SW,223,0.0,2.0,57,0.00,,SKC,0.00,0.00,VWS V14.01,2013-10-08 02:58:00,
2013-10-07 21:00:00,48.6,31.3,29.91,SW,221,0.0,2.0,51,0.00,,SKC,0.00,0.00,VWS V14.01,2013-10-08 03:00:00,
2013-10-07 21:04:00,45.9,31.5,29.85,SW,224,0.0,0.0,57,0.00,,SKC,0.00,0.00,VWS V14.01,2013-10-08 03:04:00,
2013-10-07 21:10:00,45.5,32.0,29.85,SW,224,0.0,0.0,59,0.00,,SKC,0.00,0.00,VWS V14.01,2013-10-08 03:10:00,
2013-10-07 21:15:00,48.1,31.3,29.93,SW,223,0.0,3.0,52,0.00,,SKC,0.00,0.00,VWS V14.01,2013-10-08 03:15:00,
2013-10-07 21:16:00,45.1,31.2,29.86,SW,225,0.0,1.0,58,0.00,,SKC,0.00,0.00,VWS V14.01,2013-10-08 03:16:00,
2013-10-07 21:22:00,44.9,32.3,29.85,SW,223,0.0,2.0,61,0.00,,SKC,0.00,0.00,VWS V14.01,2013-10-08 03:22:00,
2013-10-07 21:28:00,44.6,31.2,29.86,SW,225,0.0,2.0,59,0.00,,SKC,0.00,0.00,VWS V14.01,2013-10-08 03:28:00,
2013-10-07 21:30:00,47.6,31.8,29.93,SW,224,0.0,2.0,54,0.00,,SKC,0.00,0.00,VWS V14.01,2013-10-08 03:30:00,
2013-10-07 21:34:00,44.3,32.1,29.87,SW,225,0.0,0.0,62,0.00,,SKC,0.00,0.00,VWS V14.01,2013-10-08 03:34:00,
2013-10-07 21:40:00,44.2,31.6,29.87,West,269,4.0,4.0,61,0.00,,SKC,0.00,0.00,VWS V14.01,2013-10-08 03:40:00,
2013-10-07 21:45:00,46.9,32.0,29.93,SW,224,0.0,1.0,56,0.00,,SKC,0.00,0.00,VWS V14.01,2013-10-08 03:45:00,
2013-10-07 21:47:00,44.1,32.3,29.87,West,269,1.0,4.0,63,0.00,,SKC,0.00,0.00,VWS V14.01,2013-10-08 03:47:00,
2013-10-07 21:53:00,44.0,31.4,29.87,West,268,0.0,1.0,61,0.00,,SKC,0.00,0.00,VWS V14.01,2013-10-08 03:53:00,
2013-10-07 21:59:00,44.0,31.8,29.87,West,268,0.0,1.0,62,0.00,,SKC,0.00,0.00,VWS V14.01,2013-10-08 03:59:00,
2013-10-07 22:00:00,46.0,32.1,29.95,SW,223,0.0,2.0,58,0.00,,SKC,0.00,0.00,VWS V14.01,2013-10-08 04:00:00,
2013-10-07 22:02:00,44.0,32.2,29.87,West,268,0.0,1.0,63,0.00,,SKC,0.00,0.00,VWS V14.01,2013-10-08 04:02:00,
2013-10-07 22:03:00,44.0,32.2,29.80,West,268,0.0,0.0,63,0.00,,SKC,0.00,0.00,VWS V14.01,2013-10-08 04:03:00,
2013-10-07 22:06:00,43.9,31.7,29.80,West,269,0.0,0.0,62,0.00,,SKC,0.00,0.00,VWS V14.01,2013-10-08 04:06:00,
2013-10-07 22:11:00,43.7,32.0,29.80,West,268,0.0,1.0,63,0.00,,SKC,0.00,0.00,VWS V14.01,2013-10-08 04:11:00,
2013-10-07 22:14:00,43.6,32.2,29.80,West,268,0.0,1.0,64,0.00,,SKC,0.00,0.00,VWS V14.01,2013-10-08 04:14:00,
2013-10-07 22:15:00,45.1,31.2,29.86,SW,225,0.0,1.0,58,0.00,,SKC,0.00,0.00,VWS V14.01,2013-10-08 04:15:00,
2013-10-07 22:20:00,43.3,31.6,29.82,West,269,0.0,2.0,63,0.00,,SKC,0.00,0.00,VWS V14.01,2013-10-08 04:20:00,
2013-10-07 22:26:00,43.1,32.2,29.81,West,269,0.0,2.0,65,0.00,,SKC,0.00,0.00,VWS V14.01,2013-10-08 04:26:00,
2013-10-07 22:30:00,44.5,31.9,29.85,SW,225,0.0,2.0,61,0.00,,SKC,0.00,0.00,VWS V14.01,2013-10-08 04:30:00,
2013-10-07 22:32:00,42.8,32.2,29.81,West,264,2.0,2.0,66,0.00,,SKC,0.00,0.00,VWS V14.01,2013-10-08 04:32:00,
2013-10-07 22:38:00,42.4,32.2,29.81,West,264,0.0,2.0,67,0.00,,SKC,0.00,0.00,VWS V14.01,2013-10-08 04:38:00,
2013-10-07 22:44:00,42.1,31.6,29.81,West,261,0.0,2.0,66,0.00,,SKC,0.00,0.00,VWS V14.01,2013-10-08 04:44:00,
2013-10-07 22:45:00,44.1,32.3,29.87,West,268,0.0,4.0,63,0.00,,SKC,0.00,0.00,VWS V14.01,2013-10-08 04:45:00,
2013-10-07 22:50:00,41.7,31.6,29.81,WNW,287,0.0,3.0,67,0.00,,SKC,0.00,0.00,VWS V14.01,2013-10-08 04:50:00,
2013-10-07 22:56:00,41.5,32.1,29.80,West,279,0.0,3.0,69,0.00,,SKC,0.00,0.00,VWS V14.01,2013-10-08 04:56:00,
2013-10-07 23:00:00,44.0,32.2,29.87,West,268,0.0,1.0,63,0.00,,SKC,0.00,0.00,VWS V14.01,2013-10-08 05:00:00,
2013-10-07 23:02:00,41.3,31.9,29.82,West,279,0.0,3.0,69,0.00,,SKC,0.00,0.00,VWS V14.01,2013-10-08 05:02:00,
2013-10-07 23:08:00,41.2,31.5,29.77,West,279,0.0,0.0,68,0.00,,SKC,0.00,0.00,VWS V14.01,2013-10-08 05:08:00,
2013-10-07 23:14:00,41.1,31.0,29.77,West,279,0.0,1.0,67,0.00,,SKC,0.00,0.00,VWS V14.01,2013-10-08 05:14:00,
2013-10-07 23:15:00,43.4,31.7,29.80,West,269,0.0,1.0,63,0.00,,SKC,0.00,0.00,VWS V14.01,2013-10-08 05:15:00,
2013-10-07 23:20:00,41.1,31.4,29.77,West,279,0.0,0.0,68,0.00,,SKC,0.00,0.00,VWS V14.01,2013-10-08 05:20:00,
2013-10-07 23:26:00,41.0,31.3,29.76,West,279,0.0,0.0,68,0.00,,SKC,0.00,0.00,VWS V14.01,2013-10-08 05:26:00,
2013-10-07 23:30:00,42.8,32.2,29.81,West,264,2.0,2.0,66,0.00,,SKC,0.00,0.00,VWS V14.01,2013-10-08 05:30:00,
2013-10-07 23:32:00,40.7,31.3,29.76,West,279,0.0,2.0,69,0.00,,SKC,0.00,0.00,VWS V14.01,2013-10-08 05:32:00,
2013-10-07 23:38:00,40.5,31.1,29.76,SW,227,1.0,3.0,69,0.00,,SKC,0.00,0.00,VWS V14.01,2013-10-08 05:38:00,
2013-10-07 23:44:00,40.2,31.2,29.77,SW,227,0.0,3.0,70,0.00,,SKC,0.00,0.00,VWS V14.01,2013-10-08 05:44:00,
2013-10-07 23:45:00,41.9,32.1,29.81,SW,230,3.0,3.0,68,0.00,,SKC,0.00,0.00,VWS V14.01,2013-10-08 05:45:00,
2013-10-07 23:50:00,40.1,31.1,29.77,SW,227,0.0,0.0,70,0.00,,SKC,0.00,0.00,VWS V14.01,2013-10-08 05:50:00,
2013-10-07 23:56:00,39.9,31.3,29.77,SW,227,0.0,0.0,71,0.00,,SKC,0.00,0.00,VWS V14.01,2013-10-08 05:56:00,